LZB9711 LBSF-LBWN

Flight info

Callsign LZB9711
Flight time 0h 36m
Altitude 27000
Route UMPIT4S/09 UMPIT DICXA
Aircraft A320/M-SDE3FGHIRWY/LB1

Departure

Time 2026-04-28 18:49
Airport Sofia Airport (LBSF)

Arrival

Time 2026-04-28 19:25
Airport Varna Airport (LBWN)
Time Latitude Longitude Altitude Speed Heading
2026-04-28 18:17 42.69018 23.40588 1753 ft 0 kts 196°
2026-04-28 18:41 42.69015 23.40587 1753 ft 2 kts 196°
2026-04-28 18:42 42.68990 23.40574 1745 ft 4 kts 210°
2026-04-28 18:42 42.68985 23.40537 1768 ft 5 kts 283°
2026-04-28 18:42 42.69000 23.40466 1751 ft 10 kts 286°
2026-04-28 18:42 42.69025 23.40356 1750 ft 15 kts 287°
2026-04-28 18:43 42.69060 23.40204 1750 ft 18 kts 287°
2026-04-28 18:43 42.69098 23.40025 1750 ft 21 kts 281°
2026-04-28 18:43 42.69130 23.39823 1750 ft 23 kts 285°
2026-04-28 18:43 42.69168 23.39627 1748 ft 15 kts 284°
2026-04-28 18:44 42.69251 23.39556 1744 ft 17 kts
2026-04-28 18:44 42.69522 23.39581 1751 ft 22 kts
2026-04-28 18:44 42.69656 23.39592 1746 ft 6 kts
2026-04-28 18:46 42.69657 23.39592 1747 ft 0 kts
2026-04-28 18:47 42.69659 23.39592 1748 ft 0 kts
2026-04-28 18:47 42.69683 23.39594 1751 ft 6 kts
2026-04-28 18:48 42.69743 23.39607 1753 ft 11 kts 25°
2026-04-28 18:48 42.69769 23.39696 1751 ft 7 kts 95°
2026-04-28 18:48 42.69768 23.39710 1749 ft 7 kts 95°
2026-04-28 18:48 42.69740 23.40162 1750 ft 91 kts 95°
2026-04-28 18:49 42.69675 23.41373 1764 ft 161 kts 98°
2026-04-28 18:49 42.69651 23.41882 1892 ft 166 kts 97°
2026-04-28 18:49 42.69484 23.44520 3384 ft 168 kts 97°
2026-04-28 18:49 42.69374 23.46136 4123 ft 175 kts 96°
2026-04-28 18:50 42.69258 23.47847 4483 ft 190 kts 96°
2026-04-28 18:50 42.69231 23.49071 4734 ft 201 kts 83°
2026-04-28 18:50 42.69562 23.51008 5102 ft 220 kts 77°
2026-04-28 18:50 42.69912 23.53117 5562 ft 237 kts 77°
2026-04-28 18:51 42.70270 23.55392 6065 ft 255 kts 77°
2026-04-28 18:51 42.70650 23.57826 6595 ft 272 kts 77°
2026-04-28 18:51 42.71057 23.60415 7145 ft 287 kts 76°
2026-04-28 18:51 42.71484 23.63130 7936 ft 292 kts 76°
2026-04-28 18:52 42.71909 23.65845 8789 ft 295 kts 75°
2026-04-28 18:52 42.72340 23.68586 9646 ft 298 kts 75°
2026-04-28 18:52 42.72779 23.71370 10371 ft 306 kts 75°
2026-04-28 18:52 42.73240 23.74278 10797 ft 323 kts 75°
2026-04-28 18:53 42.73728 23.77342 11212 ft 340 kts 75°
2026-04-28 18:53 42.74234 23.80527 11815 ft 347 kts 75°
2026-04-28 18:53 42.74747 23.83785 12571 ft 351 kts 76°
2026-04-28 18:53 42.75258 23.87051 13352 ft 353 kts 76°
2026-04-28 18:54 42.75769 23.90336 14090 ft 356 kts 76°
2026-04-28 18:54 42.76282 23.93648 14745 ft 360 kts 76°
2026-04-28 18:54 42.76799 23.96995 15379 ft 364 kts 76°
2026-04-28 18:54 42.77321 24.00378 16004 ft 368 kts 76°
2026-04-28 18:55 42.77852 24.03805 16622 ft 372 kts 76°
2026-04-28 18:55 42.78391 24.07273 17235 ft 376 kts 76°
2026-04-28 18:55 42.78934 24.10770 17851 ft 380 kts 76°
2026-04-28 18:55 42.79481 24.14308 18445 ft 384 kts 76°
2026-04-28 18:56 42.80030 24.17889 18957 ft 388 kts 77°
2026-04-28 18:56 42.80583 24.21502 19487 ft 392 kts 77°
2026-04-28 18:56 42.81140 24.25149 20022 ft 395 kts 77°
2026-04-28 18:56 42.81702 24.28835 20556 ft 399 kts 77°
2026-04-28 18:57 42.82269 24.32560 21073 ft 403 kts 77°
2026-04-28 18:57 42.82841 24.36315 21582 ft 407 kts 77°
2026-04-28 18:57 42.83415 24.40100 22098 ft 410 kts 77°
2026-04-28 18:57 42.83992 24.43928 22610 ft 413 kts 77°
2026-04-28 18:58 42.84574 24.47783 23108 ft 417 kts 77°
2026-04-28 18:58 42.85159 24.51670 23606 ft 421 kts 77°
2026-04-28 18:58 42.85747 24.55592 24001 ft 424 kts 77°
2026-04-28 18:58 42.86342 24.59544 24415 ft 427 kts 77°
2026-04-28 18:59 42.86940 24.63517 24817 ft 429 kts 77°
2026-04-28 18:59 42.87540 24.67517 25216 ft 432 kts 77°
2026-04-28 18:59 42.88138 24.71540 25600 ft 434 kts 77°
2026-04-28 18:59 42.88736 24.75588 25972 ft 437 kts 77°
2026-04-28 19:00 42.89337 24.79661 26344 ft 439 kts 77°
2026-04-28 19:00 42.89942 24.83757 26707 ft 442 kts 77°
2026-04-28 19:00 42.90556 24.87929 27000 ft 444 kts 77°
2026-04-28 19:00 42.91149 24.91977 27056 ft 433 kts 77°
2026-04-28 19:01 42.91727 24.95937 27075 ft 422 kts 77°
2026-04-28 19:01 42.92310 24.99912 27069 ft 422 kts 77°
2026-04-28 19:01 42.92886 25.03843 27066 ft 422 kts 77°
2026-04-28 19:01 42.93460 25.07769 27070 ft 422 kts 77°
2026-04-28 19:02 42.94032 25.11698 27068 ft 422 kts 77°
2026-04-28 19:02 42.94603 25.15628 27066 ft 422 kts 77°
2026-04-28 19:02 42.95168 25.19560 27070 ft 422 kts 78°
2026-04-28 19:02 42.95729 25.23491 27064 ft 422 kts 77°
2026-04-28 19:03 42.96290 25.27434 27063 ft 423 kts 77°
2026-04-28 19:03 42.96853 25.31371 27049 ft 422 kts 77°
2026-04-28 19:03 42.97409 25.35252 26800 ft 412 kts 77°
2026-04-28 19:03 42.97954 25.39073 26551 ft 408 kts 78°
2026-04-28 19:04 42.98493 25.42872 26306 ft 407 kts 78°
2026-04-28 19:04 42.99028 25.46654 26056 ft 405 kts 78°
2026-04-28 19:04 42.99562 25.50433 25810 ft 404 kts 78°
2026-04-28 19:04 43.00094 25.54190 25584 ft 403 kts 77°
2026-04-28 19:05 43.00634 25.58011 25337 ft 404 kts 77°
2026-04-28 19:05 43.01163 25.61774 25098 ft 402 kts 77°
2026-04-28 19:05 43.01688 25.65521 24858 ft 401 kts 77°
2026-04-28 19:05 43.02206 25.69254 24627 ft 399 kts 77°
2026-04-28 19:06 43.02722 25.72978 24388 ft 398 kts 77°
2026-04-28 19:06 43.03064 25.75443 24231 ft 397 kts 77°
2026-04-28 19:06 43.03752 25.80402 23922 ft 395 kts 77°
2026-04-28 19:06 43.04264 25.84088 23684 ft 394 kts 77°
2026-04-28 19:07 43.04768 25.87723 23421 ft 393 kts 77°
2026-04-28 19:07 43.05281 25.91428 23135 ft 391 kts 77°
2026-04-28 19:07 43.05781 25.95067 22865 ft 389 kts 78°
2026-04-28 19:07 43.06275 25.98696 22595 ft 387 kts 78°
2026-04-28 19:08 43.06764 26.02309 22327 ft 386 kts 78°
2026-04-28 19:08 43.07252 26.05909 22063 ft 384 kts 78°
2026-04-28 19:08 43.07736 26.09491 21797 ft 382 kts 78°
2026-04-28 19:08 43.08217 26.13060 21538 ft 381 kts 78°
2026-04-28 19:09 43.08697 26.16609 21272 ft 379 kts 78°
2026-04-28 19:09 43.09176 26.20154 21036 ft 378 kts 78°
2026-04-28 19:09 43.09650 26.23681 20775 ft 376 kts 78°
2026-04-28 19:09 43.10121 26.27193 20523 ft 375 kts 78°
2026-04-28 19:10 43.10590 26.30696 20280 ft 373 kts 78°
2026-04-28 19:10 43.11055 26.34178 20036 ft 372 kts 78°
2026-04-28 19:10 43.11522 26.37651 19794 ft 370 kts 78°
2026-04-28 19:10 43.11984 26.41104 19544 ft 366 kts 78°
2026-04-28 19:11 43.12436 26.44517 19137 ft 364 kts 78°
2026-04-28 19:11 43.12885 26.47920 18684 ft 363 kts 78°
2026-04-28 19:11 43.13334 26.51319 18185 ft 363 kts 78°
2026-04-28 19:11 43.13780 26.54710 17739 ft 360 kts 78°
2026-04-28 19:12 43.14220 26.58071 17293 ft 358 kts 78°
2026-04-28 19:12 43.14659 26.61418 16861 ft 356 kts 78°
2026-04-28 19:12 43.15093 26.64744 16425 ft 354 kts 78°
2026-04-28 19:12 43.15522 26.68048 15999 ft 352 kts 78°
2026-04-28 19:13 43.15951 26.71339 15576 ft 350 kts 78°
2026-04-28 19:13 43.16377 26.74612 15151 ft 349 kts 79°
2026-04-28 19:13 43.16801 26.77877 14724 ft 347 kts 78°
2026-04-28 19:13 43.17223 26.81127 14302 ft 346 kts 78°
2026-04-28 19:14 43.17641 26.84361 13863 ft 345 kts 79°
2026-04-28 19:14 43.18053 26.87587 13413 ft 343 kts 79°
2026-04-28 19:14 43.18461 26.90788 12990 ft 340 kts 78°
2026-04-28 19:14 43.18867 26.93974 12558 ft 337 kts 78°
2026-04-28 19:15 43.19267 26.97125 12137 ft 334 kts 78°
2026-04-28 19:15 43.19665 27.00251 11704 ft 332 kts 78°
2026-04-28 19:15 43.20091 27.03376 11149 ft 333 kts 73°
2026-04-28 19:15 43.20580 27.05361 10842 ft 330 kts 64°
2026-04-28 19:16 43.22179 27.08882 10266 ft 323 kts 50°
2026-04-28 19:16 43.23526 27.11327 9979 ft 315 kts 50°
2026-04-28 19:16 43.24794 27.13654 9688 ft 297 kts 51°
2026-04-28 19:16 43.25937 27.15760 9268 ft 293 kts 51°
2026-04-28 19:17 43.27129 27.18030 8839 ft 293 kts 57°
2026-04-28 19:17 43.27953 27.20594 8401 ft 295 kts 72°
2026-04-28 19:17 43.28251 27.23378 7956 ft 297 kts 89°
2026-04-28 19:17 43.28068 27.26191 7550 ft 296 kts 96°
2026-04-28 19:18 43.27822 27.28988 7195 ft 292 kts 95°
2026-04-28 19:18 43.27582 27.31753 6711 ft 289 kts 95°
2026-04-28 19:18 43.27353 27.34454 6198 ft 280 kts 96°
2026-04-28 19:18 43.27135 27.37044 5781 ft 267 kts 96°
2026-04-28 19:19 43.26926 27.39519 5396 ft 255 kts 96°
2026-04-28 19:19 43.26792 27.41094 5151 ft 247 kts 96°
2026-04-28 19:19 43.26599 27.43367 5016 ft 232 kts 96°
2026-04-28 19:19 43.26412 27.45553 4934 ft 228 kts 96°
2026-04-28 19:20 43.26233 27.47656 4852 ft 215 kts 96°
2026-04-28 19:20 43.26061 27.49659 4666 ft 210 kts 96°
2026-04-28 19:20 43.25892 27.51633 4414 ft 207 kts 97°
2026-04-28 19:20 43.25724 27.53588 4149 ft 205 kts 97°
2026-04-28 19:21 43.25555 27.55542 3870 ft 202 kts 97°
2026-04-28 19:21 43.25391 27.57444 3605 ft 200 kts 98°
2026-04-28 19:21 43.25230 27.59307 3343 ft 198 kts 98°
2026-04-28 19:21 43.25066 27.61195 3069 ft 196 kts 98°
2026-04-28 19:22 43.24905 27.63045 2803 ft 195 kts 99°
2026-04-28 19:22 43.24800 27.64262 2632 ft 194 kts 99°
2026-04-28 19:22 43.24587 27.66704 2277 ft 192 kts 99°
2026-04-28 19:22 43.24429 27.68508 2018 ft 187 kts 100°
2026-04-28 19:23 43.24278 27.70243 1775 ft 178 kts 99°
2026-04-28 19:23 43.24138 27.71850 1543 ft 159 kts 99°
2026-04-28 19:23 43.24014 27.73265 1340 ft 141 kts 99°
2026-04-28 19:23 43.23899 27.74560 1158 ft 138 kts 100°
2026-04-28 19:24 43.23787 27.75893 980 ft 139 kts 98°
2026-04-28 19:24 43.23675 27.77203 800 ft 138 kts 99°
2026-04-28 19:24 43.23558 27.78489 601 ft 137 kts 98°
2026-04-28 19:24 43.23435 27.79808 409 ft 137 kts 99°
2026-04-28 19:25 43.23323 27.81109 255 ft 137 kts 98°
2026-04-28 19:25 43.23213 27.82328 219 ft 109 kts 97°
2026-04-28 19:25 43.23164 27.82880 223 ft 36 kts 99°
2026-04-28 19:25 43.23138 27.83156 222 ft 16 kts 96°
2026-04-28 19:26 43.23169 27.83282 223 ft 15 kts 21°
2026-04-28 19:26 43.23280 27.83302 223 ft 17 kts
2026-04-28 19:26 43.23385 27.83294 223 ft 14 kts 313°
2026-04-28 19:26 43.23401 27.83165 224 ft 15 kts 279°
2026-04-28 19:27 43.23417 27.83007 222 ft 18 kts 277°
2026-04-28 19:27 43.23436 27.82884 222 ft 6 kts 326°
2026-04-28 19:27 43.23474 27.82879 221 ft 5 kts
2026-04-28 19:27 43.23494 27.82882 221 ft 0 kts